CYBB

Pelly Bay  Airport

Pelly Bay, Canada

CYBB 230000Z 09007KT 040V120 15SM BKN025 M06/M08 A2948 RMK SC6 -1.2/-6.9/0.8/LAST STFD OBS/NXT 231300 SLP986

Observed Flight Rules
Nov-23 @ 00:00 UTC (11 hours ago)
 
Marginal Visual Flight Rules
Wind Visibility Clouds
90° at 7 knots 15 miles
  • Broken at 2,500' AGL
Temperatures Readings
Current -6°C / 21°F
Dewpoint -8°C / 18°F
Humidity 86%
Altimeter 29.48" Hg
Pressure 998.6 hPa
Elevation 15
Observed Flight Rules
Nov-23 @ 00:00 UTC
(11 hours ago)
 
MVFR
Wind Visibility
90° at 7 knots 15 miles
Clouds
  • Broken at 2,500' AGL
Temperature Dewpoint
-6°C / 21°F -8°C / 18°F
Humidity Altimeter Pressure
86% 29.48" Hg 998.6 hPa